Disclaimer

Please do not use the information listed here in-flight or in-navigation, as they are not provided to us by the airports but are provided by volunteers, so they might be outdated.

Search


Regions


Airport information page

Radio informations:
MCCARTNEY TWR - 118.6 MHz
Ground (GND) - 121.9 MHz
PROVO APP - 126.0 MHz

Airport informations:
Latitude: 21° 26' 40.33" N
Longitude: 071° 08' 32.32" W
Elevation: 13 feet - 4 meters
Operating hours: Remarks
Operating agency: Civil government, landing fees and diplomatic clearance may be required
Timezone: UTC-5(-4DT)
Fuel: N/A

Runway information:
11/29 - 6362 x 151 feet< - >1939 x 46 meters

Recent METARs:
MBGT 162200Z 12006KT 9999 SCT015 29/25 Q1012
MBGT 162200Z 12006KT 9999 SCT015 29/25 Q1012
MBGT 162200Z 12006KT 9999 SCT015 29/25 Q1012

Airport on the map: